Airfield :
LOGIN :

Register | Disclaimer

   EN    FR    IT 

 










Legend :    VFR   Marginal VFR   IFR   Intensive IFR   Very Intensive IFR
Visi :
Ceiling :
>= 8 km
>= 3000ft
5 to 8 km
1000 to 3000 ft
1500m to 5 km
500 to 1000 ft
800 to 1500m
200 to 500 ft
< 800m
< 200 ft
Symbols :   Thunderstorms  Fog  Heavy snow  Heavy precipitations  Wind > 20 kt
SIGMETs :     Misc.  Thunderstorms  Icing  Turbulence  Mountain Waves  Volcanic Ashes







- Airport Elevation : 527 ft
- IATA code : DBV


LDDU - Dubrovnik

CURRENT METAR :
  • 202130Z 02015KT 350V050 CAVOK 23/10 Q1013 NOSIG

EXPIRED METARs :
  • 202100Z 03013KT 350V060 CAVOK 23/10 Q1012 NOSIG
  • 202030Z VRB03KT CAVOK 23/10 Q1013 BECMG 02014KT
  • 202000Z 29006KT 230V330 CAVOK 22/11 Q1013 BECMG 02014KT
  • 201930Z 31006KT 9999 FEW045 21/14 Q1012 BECMG 02014KT
  • 201900Z 31007KT 280V010 9999 FEW045 22/14 Q1012 NOSIG

TAF TAF LDDU
Valid from the 20 at 18:00 until the 21 at 18:00 UTC


201725Z 2018/2118 31007KT 9999 FEW040 TX24/2112Z TN19/2104Z
BECMG 2019/2021 02014KT
BECMG 2104/2106 12006KT
BECMG 2107/2109 21007KT
BECMG 2110/2112 30008KT
PROB30
TEMPO 2112/2118 TSRA FEW030CB SCT035
No reported NOTAMs for that airfield.



MET'MAP, your aeronautical weather chart ! - Copyright ORBIFLY December 2007 - Disclaimer

ORBIFLY MET'MAP TEAM :

Programming & Development : Alexandra Zaïnal
Concept & Development : Baudouin d'Aumeries
Co-Development & Prog : Marc-Olivier Méhu
Technical & hardware support : Manuel Goepfert

Contact : metmap@orbifly.com




SOURCES & CREDITS :

   NOAA